sensor_id;sensor_type;location;lat;lon;timestamp;temperature;humidity
42755;DHT22;28407;51.830;5.684;2022-07-29T00:00:28;21.70;50.10
42755;DHT22;28407;51.830;5.684;2022-07-29T00:02:29;21.70;49.50
42755;DHT22;28407;51.830;5.684;2022-07-29T00:04:30;21.70;49.60
42755;DHT22;28407;51.830;5.684;2022-07-29T00:06:30;21.70;49.60
42755;DHT22;28407;51.830;5.684;2022-07-29T00:08:31;21.70;49.60
42755;DHT22;28407;51.830;5.684;2022-07-29T00:10:32;21.70;49.70
42755;DHT22;28407;51.830;5.684;2022-07-29T00:12:32;21.60;49.60
42755;DHT22;28407;51.830;5.684;2022-07-29T00:14:33;21.60;49.70
42755;DHT22;28407;51.830;5.684;2022-07-29T00:16:34;21.60;49.70
42755;DHT22;28407;51.830;5.684;2022-07-29T00:18:34;21.60;49.80
42755;DHT22;28407;51.830;5.684;2022-07-29T00:20:35;21.60;49.80
42755;DHT22;28407;51.830;5.684;2022-07-29T00:22:39;21.60;49.90
42755;DHT22;28407;51.830;5.684;2022-07-29T00:24:39;21.60;49.90
42755;DHT22;28407;51.830;5.684;2022-07-29T00:26:40;21.60;49.90
42755;DHT22;28407;51.830;5.684;2022-07-29T00:28:41;21.60;50.00
42755;DHT22;28407;51.830;5.684;2022-07-29T00:30:41;21.60;50.00
42755;DHT22;28407;51.830;5.684;2022-07-29T00:32:43;21.60;50.10
42755;DHT22;28407;51.830;5.684;2022-07-29T00:34:43;21.60;50.10
42755;DHT22;28407;51.830;5.684;2022-07-29T00:37:03;21.50;50.10
42755;DHT22;28407;51.830;5.684;2022-07-29T00:39:03;21.50;50.20
42755;DHT22;28407;51.830;5.684;2022-07-29T00:41:04;21.60;50.20
42755;DHT22;28407;51.830;5.684;2022-07-29T00:43:05;21.50;50.20
42755;DHT22;28407;51.830;5.684;2022-07-29T00:45:06;21.50;50.30
42755;DHT22;28407;51.830;5.684;2022-07-29T00:47:08;21.50;51.00
42755;DHT22;28407;51.830;5.684;2022-07-29T00:49:09;21.50;50.40
42755;DHT22;28407;51.830;5.684;2022-07-29T00:51:10;21.50;50.50
42755;DHT22;28407;51.830;5.684;2022-07-29T00:53:12;21.50;50.50
42755;DHT22;28407;51.830;5.684;2022-07-29T00:55:14;21.40;50.50
42755;DHT22;28407;51.830;5.684;2022-07-29T00:57:16;21.40;50.60
42755;DHT22;28407;51.830;5.684;2022-07-29T00:59:16;21.40;50.60
42755;DHT22;28407;51.830;5.684;2022-07-29T01:01:17;21.40;50.70
42755;DHT22;28407;51.830;5.684;2022-07-29T01:03:18;21.40;50.70
42755;DHT22;28407;51.830;5.684;2022-07-29T01:05:21;21.40;50.80
42755;DHT22;28407;51.830;5.684;2022-07-29T01:07:22;21.40;50.80
42755;DHT22;28407;51.830;5.684;2022-07-29T01:09:23;21.40;50.90
42755;DHT22;28407;51.830;5.684;2022-07-29T01:11:25;21.40;50.90
42755;DHT22;28407;51.830;5.684;2022-07-29T01:13:26;21.40;50.90
42755;DHT22;28407;51.830;5.684;2022-07-29T01:15:27;21.40;51.00
42755;DHT22;28407;51.830;5.684;2022-07-29T01:20:07;21.30;51.10
42755;DHT22;28407;51.830;5.684;2022-07-29T01:23:05;21.30;51.20
42755;DHT22;28407;51.830;5.684;2022-07-29T01:25:17;21.30;51.40
42755;DHT22;28407;51.830;5.684;2022-07-29T01:27:41;21.30;51.60
42755;DHT22;28407;51.830;5.684;2022-07-29T01:29:58;21.30;52.00
42755;DHT22;28407;51.830;5.684;2022-07-29T01:32:12;21.20;52.10
42755;DHT22;28407;51.830;5.684;2022-07-29T01:34:53;21.20;52.30
42755;DHT22;28407;51.830;5.684;2022-07-29T01:37:01;21.20;52.60
42755;DHT22;28407;51.830;5.684;2022-07-29T01:39:16;21.20;52.70
42755;DHT22;28407;51.830;5.684;2022-07-29T01:41:19;21.10;52.90
42755;DHT22;28407;51.830;5.684;2022-07-29T01:43:27;21.10;53.10
42755;DHT22;28407;51.830;5.684;2022-07-29T01:45:40;21.10;53.30
42755;DHT22;28407;51.830;5.684;2022-07-29T01:47:59;21.10;53.70
42755;DHT22;28407;51.830;5.684;2022-07-29T01:50:01;21.00;54.00
42755;DHT22;28407;51.830;5.684;2022-07-29T01:52:11;21.00;54.30
42755;DHT22;28407;51.830;5.684;2022-07-29T01:54:28;21.00;54.70
42755;DHT22;28407;51.830;5.684;2022-07-29T01:56:29;20.90;55.00
42755;DHT22;28407;51.830;5.684;2022-07-29T01:58:35;20.90;55.10
42755;DHT22;28407;51.830;5.684;2022-07-29T02:00:38;20.90;55.40
42755;DHT22;28407;51.830;5.684;2022-07-29T02:02:44;20.80;55.70
42755;DHT22;28407;51.830;5.684;2022-07-29T02:04:47;20.80;56.00
42755;DHT22;28407;51.830;5.684;2022-07-29T02:06:51;20.80;56.30
42755;DHT22;28407;51.830;5.684;2022-07-29T02:08:53;20.80;56.70
42755;DHT22;28407;51.830;5.684;2022-07-29T02:10:55;20.70;56.80
42755;DHT22;28407;51.830;5.684;2022-07-29T02:12:56;20.70;57.00
42755;DHT22;28407;51.830;5.684;2022-07-29T02:15:01;20.70;57.10
42755;DHT22;28407;51.830;5.684;2022-07-29T02:17:02;20.60;57.30
42755;DHT22;28407;51.830;5.684;2022-07-29T02:19:03;20.50;57.60
42755;DHT22;28407;51.830;5.684;2022-07-29T02:21:05;20.50;57.80
42755;DHT22;28407;51.830;5.684;2022-07-29T02:23:06;20.40;57.90
42755;DHT22;28407;51.830;5.684;2022-07-29T02:25:08;20.30;58.00
42755;DHT22;28407;51.830;5.684;2022-07-29T02:27:10;20.30;58.10
42755;DHT22;28407;51.830;5.684;2022-07-29T02:29:12;20.20;58.30
42755;DHT22;28407;51.830;5.684;2022-07-29T02:31:15;20.20;58.40
42755;DHT22;28407;51.830;5.684;2022-07-29T02:33:18;20.20;58.50
42755;DHT22;28407;51.830;5.684;2022-07-29T02:35:21;20.20;58.60
42755;DHT22;28407;51.830;5.684;2022-07-29T02:37:23;20.20;58.70
42755;DHT22;28407;51.830;5.684;2022-07-29T02:39:26;20.20;58.90
42755;DHT22;28407;51.830;5.684;2022-07-29T02:41:30;20.20;58.90
42755;DHT22;28407;51.830;5.684;2022-07-29T02:43:31;20.20;59.00
42755;DHT22;28407;51.830;5.684;2022-07-29T02:45:36;20.10;59.10
42755;DHT22;28407;51.830;5.684;2022-07-29T02:47:41;20.10;59.20
42755;DHT22;28407;51.830;5.684;2022-07-29T02:50:00;20.10;59.30
42755;DHT22;28407;51.830;5.684;2022-07-29T02:52:08;20.00;59.50
42755;DHT22;28407;51.830;5.684;2022-07-29T02:54:10;19.90;59.70
42755;DHT22;28407;51.830;5.684;2022-07-29T02:56:16;19.90;59.90
42755;DHT22;28407;51.830;5.684;2022-07-29T02:58:21;19.90;60.00
42755;DHT22;28407;51.830;5.684;2022-07-29T03:00:31;19.90;60.00
42755;DHT22;28407;51.830;5.684;2022-07-29T03:02:40;19.90;60.00
42755;DHT22;28407;51.830;5.684;2022-07-29T03:04:43;19.90;60.00
42755;DHT22;28407;51.830;5.684;2022-07-29T03:06:44;20.00;60.10
42755;DHT22;28407;51.830;5.684;2022-07-29T03:08:46;20.00;60.20
42755;DHT22;28407;51.830;5.684;2022-07-29T03:10:48;20.00;60.30
42755;DHT22;28407;51.830;5.684;2022-07-29T03:12:49;20.00;60.20
42755;DHT22;28407;51.830;5.684;2022-07-29T03:14:51;19.90;60.30
42755;DHT22;28407;51.830;5.684;2022-07-29T03:16:52;19.90;60.40
42755;DHT22;28407;51.830;5.684;2022-07-29T03:18:54;19.90;60.50
42755;DHT22;28407;51.830;5.684;2022-07-29T03:20:55;19.80;60.40
42755;DHT22;28407;51.830;5.684;2022-07-29T03:22:55;19.80;61.20
42755;DHT22;28407;51.830;5.684;2022-07-29T03:24:56;19.80;60.60
42755;DHT22;28407;51.830;5.684;2022-07-29T03:26:57;19.70;60.60
42755;DHT22;28407;51.830;5.684;2022-07-29T03:28:58;19.80;60.80
42755;DHT22;28407;51.830;5.684;2022-07-29T03:30:59;19.80;60.90
42755;DHT22;28407;51.830;5.684;2022-07-29T03:32:59;19.80;61.00
42755;DHT22;28407;51.830;5.684;2022-07-29T03:35:00;19.70;61.00
42755;DHT22;28407;51.830;5.684;2022-07-29T03:37:00;19.80;61.10
42755;DHT22;28407;51.830;5.684;2022-07-29T03:39:02;19.80;61.20
42755;DHT22;28407;51.830;5.684;2022-07-29T03:41:07;19.70;61.10
42755;DHT22;28407;51.830;5.684;2022-07-29T03:43:10;19.80;61.30
42755;DHT22;28407;51.830;5.684;2022-07-29T03:45:14;19.80;61.30
42755;DHT22;28407;51.830;5.684;2022-07-29T03:47:18;19.80;62.10
42755;DHT22;28407;51.830;5.684;2022-07-29T03:49:21;19.80;61.60
42755;DHT22;28407;51.830;5.684;2022-07-29T03:51:22;19.80;61.60
42755;DHT22;28407;51.830;5.684;2022-07-29T03:53:23;19.70;61.50
42755;DHT22;28407;51.830;5.684;2022-07-29T03:55:25;19.70;61.40
42755;DHT22;28407;51.830;5.684;2022-07-29T03:57:28;19.70;61.50
42755;DHT22;28407;51.830;5.684;2022-07-29T03:59:31;19.70;61.60
42755;DHT22;28407;51.830;5.684;2022-07-29T04:01:34;19.80;61.60
42755;DHT22;28407;51.830;5.684;2022-07-29T04:03:35;19.80;61.60
42755;DHT22;28407;51.830;5.684;2022-07-29T04:05:36;19.80;61.60
42755;DHT22;28407;51.830;5.684;2022-07-29T04:07:36;19.80;61.70
42755;DHT22;28407;51.830;5.684;2022-07-29T04:09:37;19.70;61.70
42755;DHT22;28407;51.830;5.684;2022-07-29T04:11:39;19.70;61.80
42755;DHT22;28407;51.830;5.684;2022-07-29T04:13:40;19.70;61.80
42755;DHT22;28407;51.830;5.684;2022-07-29T04:15:41;19.60;61.80
42755;DHT22;28407;51.830;5.684;2022-07-29T04:17:41;19.60;62.00
42755;DHT22;28407;51.830;5.684;2022-07-29T04:19:42;19.60;62.10
42755;DHT22;28407;51.830;5.684;2022-07-29T04:21:42;19.60;62.20
42755;DHT22;28407;51.830;5.684;2022-07-29T04:23:45;19.60;62.20
42755;DHT22;28407;51.830;5.684;2022-07-29T04:25:49;19.60;62.30
42755;DHT22;28407;51.830;5.684;2022-07-29T04:27:50;19.60;62.40
42755;DHT22;28407;51.830;5.684;2022-07-29T04:30:03;19.50;62.40
42755;DHT22;28407;51.830;5.684;2022-07-29T04:32:04;19.50;62.50
42755;DHT22;28407;51.830;5.684;2022-07-29T04:34:05;19.50;62.60
42755;DHT22;28407;51.830;5.684;2022-07-29T04:36:06;19.50;62.60
42755;DHT22;28407;51.830;5.684;2022-07-29T04:38:06;19.40;62.60
42755;DHT22;28407;51.830;5.684;2022-07-29T04:40:08;19.40;62.60
42755;DHT22;28407;51.830;5.684;2022-07-29T04:42:08;19.40;62.60
42755;DHT22;28407;51.830;5.684;2022-07-29T04:44:09;19.40;62.60
42755;DHT22;28407;51.830;5.684;2022-07-29T04:46:09;19.40;62.70
42755;DHT22;28407;51.830;5.684;2022-07-29T04:48:10;19.40;62.80
42755;DHT22;28407;51.830;5.684;2022-07-29T04:50:11;19.40;62.80
42755;DHT22;28407;51.830;5.684;2022-07-29T04:52:11;19.40;62.90
42755;DHT22;28407;51.830;5.684;2022-07-29T04:54:12;19.40;62.90
42755;DHT22;28407;51.830;5.684;2022-07-29T04:56:13;19.40;63.00
42755;DHT22;28407;51.830;5.684;2022-07-29T04:58:14;19.40;63.00
42755;DHT22;28407;51.830;5.684;2022-07-29T05:00:14;19.40;63.10
42755;DHT22;28407;51.830;5.684;2022-07-29T05:02:15;19.40;63.10
42755;DHT22;28407;51.830;5.684;2022-07-29T05:04:16;19.40;63.10
42755;DHT22;28407;51.830;5.684;2022-07-29T05:06:16;19.40;63.10
42755;DHT22;28407;51.830;5.684;2022-07-29T05:08:17;19.40;63.10
42755;DHT22;28407;51.830;5.684;2022-07-29T05:10:17;19.40;63.10
42755;DHT22;28407;51.830;5.684;2022-07-29T05:12:18;19.40;63.10
42755;DHT22;28407;51.830;5.684;2022-07-29T05:14:19;19.40;63.10
42755;DHT22;28407;51.830;5.684;2022-07-29T05:16:19;19.40;63.10
42755;DHT22;28407;51.830;5.684;2022-07-29T05:18:20;19.40;63.10
42755;DHT22;28407;51.830;5.684;2022-07-29T05:20:21;19.40;63.10
42755;DHT22;28407;51.830;5.684;2022-07-29T05:22:26;19.40;63.10
42755;DHT22;28407;51.830;5.684;2022-07-29T05:24:26;19.40;63.10
42755;DHT22;28407;51.830;5.684;2022-07-29T05:26:27;19.40;63.10
42755;DHT22;28407;51.830;5.684;2022-07-29T05:28:28;19.40;63.10
42755;DHT22;28407;51.830;5.684;2022-07-29T05:30:29;19.40;63.10
42755;DHT22;28407;51.830;5.684;2022-07-29T05:32:30;19.30;63.10
42755;DHT22;28407;51.830;5.684;2022-07-29T05:34:31;19.30;63.10
42755;DHT22;28407;51.830;5.684;2022-07-29T05:36:31;19.30;63.10
42755;DHT22;28407;51.830;5.684;2022-07-29T05:38:33;19.40;63.10
42755;DHT22;28407;51.830;5.684;2022-07-29T05:40:34;19.40;63.10
42755;DHT22;28407;51.830;5.684;2022-07-29T05:42:34;19.30;63.30
42755;DHT22;28407;51.830;5.684;2022-07-29T05:44:39;19.30;63.10
42755;DHT22;28407;51.830;5.684;2022-07-29T05:46:39;19.30;63.20
42755;DHT22;28407;51.830;5.684;2022-07-29T05:48:40;19.30;63.10
42755;DHT22;28407;51.830;5.684;2022-07-29T05:50:41;19.30;63.10
42755;DHT22;28407;51.830;5.684;2022-07-29T05:52:41;19.40;63.10
42755;DHT22;28407;51.830;5.684;2022-07-29T05:54:42;19.40;63.10
42755;DHT22;28407;51.830;5.684;2022-07-29T05:56:43;19.40;63.10
42755;DHT22;28407;51.830;5.684;2022-07-29T05:58:43;19.40;63.00
42755;DHT22;28407;51.830;5.684;2022-07-29T06:00:44;19.40;62.90
42755;DHT22;28407;51.830;5.684;2022-07-29T06:02:45;19.40;62.90
42755;DHT22;28407;51.830;5.684;2022-07-29T06:04:46;19.50;62.90
42755;DHT22;28407;51.830;5.684;2022-07-29T06:06:46;19.50;63.60
42755;DHT22;28407;51.830;5.684;2022-07-29T06:08:47;19.50;62.90
42755;DHT22;28407;51.830;5.684;2022-07-29T06:10:48;19.50;62.90
42755;DHT22;28407;51.830;5.684;2022-07-29T06:12:48;19.50;62.90
42755;DHT22;28407;51.830;5.684;2022-07-29T06:14:49;19.60;62.90
42755;DHT22;28407;51.830;5.684;2022-07-29T06:16:49;19.60;62.90
42755;DHT22;28407;51.830;5.684;2022-07-29T06:18:50;19.60;62.80
42755;DHT22;28407;51.830;5.684;2022-07-29T06:20:51;19.60;62.80
42755;DHT22;28407;51.830;5.684;2022-07-29T06:22:51;19.60;62.70
42755;DHT22;28407;51.830;5.684;2022-07-29T06:24:52;19.60;62.70
42755;DHT22;28407;51.830;5.684;2022-07-29T06:26:52;19.60;62.70
42755;DHT22;28407;51.830;5.684;2022-07-29T06:28:53;19.60;62.70
42755;DHT22;28407;51.830;5.684;2022-07-29T06:30:54;19.60;62.70
42755;DHT22;28407;51.830;5.684;2022-07-29T06:32:55;19.60;62.60
42755;DHT22;28407;51.830;5.684;2022-07-29T06:34:55;19.60;62.60
42755;DHT22;28407;51.830;5.684;2022-07-29T06:36:56;19.60;62.60
42755;DHT22;28407;51.830;5.684;2022-07-29T06:38:57;19.70;62.60
42755;DHT22;28407;51.830;5.684;2022-07-29T06:40:58;19.70;62.50
42755;DHT22;28407;51.830;5.684;2022-07-29T06:43:02;19.70;62.50
42755;DHT22;28407;51.830;5.684;2022-07-29T06:45:03;19.70;62.40
42755;DHT22;28407;51.830;5.684;2022-07-29T06:47:04;19.70;62.30
42755;DHT22;28407;51.830;5.684;2022-07-29T06:49:05;19.80;62.30
42755;DHT22;28407;51.830;5.684;2022-07-29T06:51:06;19.80;62.20
42755;DHT22;28407;51.830;5.684;2022-07-29T06:53:07;19.80;62.10
42755;DHT22;28407;51.830;5.684;2022-07-29T06:55:08;19.90;62.10
42755;DHT22;28407;51.830;5.684;2022-07-29T06:57:08;19.80;61.90
42755;DHT22;28407;51.830;5.684;2022-07-29T06:59:10;19.90;62.00
42755;DHT22;28407;51.830;5.684;2022-07-29T07:01:11;19.90;62.00
42755;DHT22;28407;51.830;5.684;2022-07-29T07:03:11;19.90;61.90
42755;DHT22;28407;51.830;5.684;2022-07-29T07:05:13;19.90;61.90
42755;DHT22;28407;51.830;5.684;2022-07-29T07:07:13;20.00;61.80
42755;DHT22;28407;51.830;5.684;2022-07-29T07:09:14;20.00;61.80
42755;DHT22;28407;51.830;5.684;2022-07-29T07:11:14;20.00;61.70
42755;DHT22;28407;51.830;5.684;2022-07-29T07:13:15;20.00;61.70
42755;DHT22;28407;51.830;5.684;2022-07-29T07:15:17;20.00;61.60
42755;DHT22;28407;51.830;5.684;2022-07-29T07:17:22;20.00;61.50
42755;DHT22;28407;51.830;5.684;2022-07-29T07:19:22;20.00;61.50
42755;DHT22;28407;51.830;5.684;2022-07-29T07:21:23;20.00;61.40
42755;DHT22;28407;51.830;5.684;2022-07-29T07:23:24;20.00;61.40
42755;DHT22;28407;51.830;5.684;2022-07-29T07:25:25;20.10;61.50
42755;DHT22;28407;51.830;5.684;2022-07-29T07:27:25;20.10;61.40
42755;DHT22;28407;51.830;5.684;2022-07-29T07:29:27;20.20;61.40
42755;DHT22;28407;51.830;5.684;2022-07-29T07:31:28;20.20;61.30
42755;DHT22;28407;51.830;5.684;2022-07-29T07:33:29;20.20;61.90
42755;DHT22;28407;51.830;5.684;2022-07-29T07:35:29;20.20;61.20
42755;DHT22;28407;51.830;5.684;2022-07-29T07:37:30;20.30;61.20
42755;DHT22;28407;51.830;5.684;2022-07-29T07:39:31;20.30;61.10
42755;DHT22;28407;51.830;5.684;2022-07-29T07:41:31;20.30;61.10
42755;DHT22;28407;51.830;5.684;2022-07-29T07:43:32;20.30;61.10
42755;DHT22;28407;51.830;5.684;2022-07-29T07:45:33;20.40;61.10
42755;DHT22;28407;51.830;5.684;2022-07-29T07:47:34;20.40;61.00
42755;DHT22;28407;51.830;5.684;2022-07-29T07:49:34;20.40;60.90
42755;DHT22;28407;51.830;5.684;2022-07-29T07:51:35;20.40;60.80
42755;DHT22;28407;51.830;5.684;2022-07-29T07:53:35;20.50;60.80
42755;DHT22;28407;51.830;5.684;2022-07-29T07:55:40;20.50;60.70
42755;DHT22;28407;51.830;5.684;2022-07-29T07:57:41;20.50;60.70
42755;DHT22;28407;51.830;5.684;2022-07-29T07:59:42;20.50;60.70
42755;DHT22;28407;51.830;5.684;2022-07-29T08:01:42;20.50;60.70
42755;DHT22;28407;51.830;5.684;2022-07-29T08:03:43;20.60;60.80
42755;DHT22;28407;51.830;5.684;2022-07-29T08:05:44;20.60;60.70
42755;DHT22;28407;51.830;5.684;2022-07-29T08:07:46;20.60;60.60
42755;DHT22;28407;51.830;5.684;2022-07-29T08:09:47;20.60;60.60
42755;DHT22;28407;51.830;5.684;2022-07-29T08:11:47;20.70;60.50
42755;DHT22;28407;51.830;5.684;2022-07-29T08:13:48;20.70;60.50
42755;DHT22;28407;51.830;5.684;2022-07-29T08:15:49;20.70;60.50
42755;DHT22;28407;51.830;5.684;2022-07-29T08:17:57;20.70;60.30
42755;DHT22;28407;51.830;5.684;2022-07-29T08:19:58;20.70;60.30
42755;DHT22;28407;51.830;5.684;2022-07-29T08:21:59;20.80;60.30
42755;DHT22;28407;51.830;5.684;2022-07-29T08:23:59;20.80;60.30
42755;DHT22;28407;51.830;5.684;2022-07-29T08:26:19;20.80;60.20
42755;DHT22;28407;51.830;5.684;2022-07-29T08:28:21;20.80;60.10
42755;DHT22;28407;51.830;5.684;2022-07-29T08:30:21;20.80;60.20
42755;DHT22;28407;51.830;5.684;2022-07-29T08:32:22;20.90;60.20
42755;DHT22;28407;51.830;5.684;2022-07-29T08:34:23;20.90;60.20
42755;DHT22;28407;51.830;5.684;2022-07-29T08:36:23;20.90;60.20
42755;DHT22;28407;51.830;5.684;2022-07-29T08:38:25;20.90;60.10
42755;DHT22;28407;51.830;5.684;2022-07-29T08:40:26;21.00;60.00
42755;DHT22;28407;51.830;5.684;2022-07-29T08:42:27;21.00;60.00
42755;DHT22;28407;51.830;5.684;2022-07-29T08:44:27;21.00;60.00
42755;DHT22;28407;51.830;5.684;2022-07-29T08:46:28;21.00;60.00
42755;DHT22;28407;51.830;5.684;2022-07-29T08:48:29;21.10;60.10
42755;DHT22;28407;51.830;5.684;2022-07-29T08:50:30;21.10;60.00
42755;DHT22;28407;51.830;5.684;2022-07-29T08:52:33;21.20;60.00
42755;DHT22;28407;51.830;5.684;2022-07-29T08:54:34;21.20;60.00
42755;DHT22;28407;51.830;5.684;2022-07-29T08:56:36;21.20;59.90
42755;DHT22;28407;51.830;5.684;2022-07-29T08:58:39;21.20;60.00
42755;DHT22;28407;51.830;5.684;2022-07-29T09:00:52;21.20;60.00
42755;DHT22;28407;51.830;5.684;2022-07-29T09:02:57;21.30;60.00
42755;DHT22;28407;51.830;5.684;2022-07-29T09:05:00;21.20;60.00
42755;DHT22;28407;51.830;5.684;2022-07-29T09:07:04;21.20;60.00
42755;DHT22;28407;51.830;5.684;2022-07-29T09:09:07;21.30;60.10
42755;DHT22;28407;51.830;5.684;2022-07-29T09:11:08;21.30;60.00
42755;DHT22;28407;51.830;5.684;2022-07-29T09:13:09;21.30;60.00
42755;DHT22;28407;51.830;5.684;2022-07-29T09:15:09;21.40;60.60
42755;DHT22;28407;51.830;5.684;2022-07-29T09:17:10;21.40;60.00
42755;DHT22;28407;51.830;5.684;2022-07-29T09:19:20;21.40;59.90
42755;DHT22;28407;51.830;5.684;2022-07-29T09:21:21;21.40;59.90
42755;DHT22;28407;51.830;5.684;2022-07-29T09:23:40;21.50;59.90
42755;DHT22;28407;51.830;5.684;2022-07-29T09:25:42;21.50;59.90
42755;DHT22;28407;51.830;5.684;2022-07-29T09:27:49;21.50;59.80
42755;DHT22;28407;51.830;5.684;2022-07-29T09:30:04;21.60;59.90
42755;DHT22;28407;51.830;5.684;2022-07-29T09:32:09;21.70;59.80
42755;DHT22;28407;51.830;5.684;2022-07-29T09:34:11;21.70;59.60
42755;DHT22;28407;51.830;5.684;2022-07-29T09:36:11;21.80;59.60
42755;DHT22;28407;51.830;5.684;2022-07-29T09:38:13;21.80;59.40
42755;DHT22;28407;51.830;5.684;2022-07-29T09:40:33;21.90;59.30
42755;DHT22;28407;51.830;5.684;2022-07-29T09:42:34;22.00;59.20
42755;DHT22;28407;51.830;5.684;2022-07-29T09:45:01;22.10;59.10
42755;DHT22;28407;51.830;5.684;2022-07-29T09:47:03;22.10;59.00
42755;DHT22;28407;51.830;5.684;2022-07-29T09:49:12;22.20;58.90
42755;DHT22;28407;51.830;5.684;2022-07-29T09:51:19;22.20;58.90
42755;DHT22;28407;51.830;5.684;2022-07-29T09:53:38;22.20;58.90
42755;DHT22;28407;51.830;5.684;2022-07-29T09:55:47;22.30;58.80
42755;DHT22;28407;51.830;5.684;2022-07-29T09:57:48;22.30;58.60
42755;DHT22;28407;51.830;5.684;2022-07-29T10:00:16;22.40;58.50
42755;DHT22;28407;51.830;5.684;2022-07-29T10:02:18;22.50;58.20
42755;DHT22;28407;51.830;5.684;2022-07-29T10:04:19;22.60;58.00
42755;DHT22;28407;51.830;5.684;2022-07-29T10:06:19;22.60;57.80
42755;DHT22;28407;51.830;5.684;2022-07-29T10:08:25;22.70;57.70
42755;DHT22;28407;51.830;5.684;2022-07-29T10:10:33;22.80;57.60
42755;DHT22;28407;51.830;5.684;2022-07-29T10:14:51;23.00;57.30
42755;DHT22;28407;51.830;5.684;2022-07-29T10:16:52;23.00;57.20
42755;DHT22;28407;51.830;5.684;2022-07-29T10:18:54;23.10;57.00
42755;DHT22;28407;51.830;5.684;2022-07-29T10:20:55;23.10;56.90
42755;DHT22;28407;51.830;5.684;2022-07-29T10:22:57;23.20;56.80
42755;DHT22;28407;51.830;5.684;2022-07-29T10:24:58;23.30;56.80
42755;DHT22;28407;51.830;5.684;2022-07-29T10:27:01;23.30;56.70
42755;DHT22;28407;51.830;5.684;2022-07-29T10:29:02;23.40;56.60
42755;DHT22;28407;51.830;5.684;2022-07-29T10:31:06;23.40;56.40
42755;DHT22;28407;51.830;5.684;2022-07-29T10:38:30;23.60;56.10
42755;DHT22;28407;51.830;5.684;2022-07-29T10:40:49;23.70;56.10
42755;DHT22;28407;51.830;5.684;2022-07-29T10:43:21;23.70;56.00
42755;DHT22;28407;51.830;5.684;2022-07-29T10:45:23;23.80;55.90
42755;DHT22;28407;51.830;5.684;2022-07-29T10:47:25;23.80;55.80
42755;DHT22;28407;51.830;5.684;2022-07-29T10:49:27;23.90;55.70
42755;DHT22;28407;51.830;5.684;2022-07-29T10:51:58;23.90;55.60
42755;DHT22;28407;51.830;5.684;2022-07-29T10:54:00;24.00;55.30
42755;DHT22;28407;51.830;5.684;2022-07-29T10:56:32;24.10;55.30
42755;DHT22;28407;51.830;5.684;2022-07-29T10:58:36;24.20;55.00
42755;DHT22;28407;51.830;5.684;2022-07-29T11:00:36;24.30;54.80
42755;DHT22;28407;51.830;5.684;2022-07-29T11:09:20;24.60;54.30
42755;DHT22;28407;51.830;5.684;2022-07-29T11:13:52;24.70;53.40
42755;DHT22;28407;51.830;5.684;2022-07-29T11:15:56;24.80;53.00
42755;DHT22;28407;51.830;5.684;2022-07-29T11:20:32;25.00;52.50
42755;DHT22;28407;51.830;5.684;2022-07-29T11:22:34;25.00;52.00
42755;DHT22;28407;51.830;5.684;2022-07-29T11:24:35;25.10;52.00
42755;DHT22;28407;51.830;5.684;2022-07-29T11:26:37;25.10;51.90
42755;DHT22;28407;51.830;5.684;2022-07-29T11:30:56;25.20;51.20
42755;DHT22;28407;51.830;5.684;2022-07-29T11:32:57;25.20;51.10
42755;DHT22;28407;51.830;5.684;2022-07-29T11:35:18;25.30;50.90
42755;DHT22;28407;51.830;5.684;2022-07-29T11:37:21;25.30;50.60
42755;DHT22;28407;51.830;5.684;2022-07-29T11:39:25;25.40;50.40
42755;DHT22;28407;51.830;5.684;2022-07-29T11:41:27;25.40;50.40
42755;DHT22;28407;51.830;5.684;2022-07-29T11:43:48;25.40;50.50
42755;DHT22;28407;51.830;5.684;2022-07-29T11:45:51;25.50;50.30
42755;DHT22;28407;51.830;5.684;2022-07-29T11:47:55;25.60;50.20
42755;DHT22;28407;51.830;5.684;2022-07-29T11:50:00;25.60;50.00
42755;DHT22;28407;51.830;5.684;2022-07-29T11:52:01;25.80;49.90
42755;DHT22;28407;51.830;5.684;2022-07-29T11:54:03;25.90;49.60
42755;DHT22;28407;51.830;5.684;2022-07-29T11:56:04;25.90;49.50
42755;DHT22;28407;51.830;5.684;2022-07-29T11:58:08;26.00;49.50
42755;DHT22;28407;51.830;5.684;2022-07-29T12:00:09;26.00;49.30
42755;DHT22;28407;51.830;5.684;2022-07-29T12:02:11;26.10;49.90
42755;DHT22;28407;51.830;5.684;2022-07-29T12:04:12;26.20;49.20
42755;DHT22;28407;51.830;5.684;2022-07-29T12:06:13;26.30;49.10
42755;DHT22;28407;51.830;5.684;2022-07-29T12:08:15;26.40;49.00
42755;DHT22;28407;51.830;5.684;2022-07-29T12:10:18;26.50;48.90
42755;DHT22;28407;51.830;5.684;2022-07-29T12:12:20;26.60;48.50
42755;DHT22;28407;51.830;5.684;2022-07-29T12:14:30;26.70;48.30
42755;DHT22;28407;51.830;5.684;2022-07-29T12:16:37;26.70;48.10
42755;DHT22;28407;51.830;5.684;2022-07-29T12:18:38;26.80;48.10
42755;DHT22;28407;51.830;5.684;2022-07-29T12:20:38;26.80;48.00
42755;DHT22;28407;51.830;5.684;2022-07-29T12:22:40;26.90;48.00
42755;DHT22;28407;51.830;5.684;2022-07-29T12:24:44;26.90;47.90
42755;DHT22;28407;51.830;5.684;2022-07-29T12:26:52;27.00;47.80
42755;DHT22;28407;51.830;5.684;2022-07-29T12:28:52;27.20;47.70
42755;DHT22;28407;51.830;5.684;2022-07-29T12:30:53;27.20;47.40
42755;DHT22;28407;51.830;5.684;2022-07-29T12:32:54;27.30;47.40
42755;DHT22;28407;51.830;5.684;2022-07-29T12:34:55;27.30;47.20
42755;DHT22;28407;51.830;5.684;2022-07-29T12:36:55;27.40;47.10
42755;DHT22;28407;51.830;5.684;2022-07-29T12:38:56;27.40;47.10
42755;DHT22;28407;51.830;5.684;2022-07-29T12:40:57;27.50;46.90
42755;DHT22;28407;51.830;5.684;2022-07-29T12:43:14;27.50;46.80
42755;DHT22;28407;51.830;5.684;2022-07-29T12:45:16;27.60;46.80
42755;DHT22;28407;51.830;5.684;2022-07-29T12:47:18;27.60;46.70
42755;DHT22;28407;51.830;5.684;2022-07-29T12:49:22;27.70;46.60
42755;DHT22;28407;51.830;5.684;2022-07-29T12:53:34;28.00;46.10
42755;DHT22;28407;51.830;5.684;2022-07-29T12:55:54;28.10;45.90
42755;DHT22;28407;51.830;5.684;2022-07-29T12:57:56;28.30;45.50
42755;DHT22;28407;51.830;5.684;2022-07-29T13:00:07;28.50;45.40
42755;DHT22;28407;51.830;5.684;2022-07-29T13:02:22;28.70;45.00
42755;DHT22;28407;51.830;5.684;2022-07-29T13:04:33;28.80;44.50
42755;DHT22;28407;51.830;5.684;2022-07-29T13:06:44;29.00;44.20
42755;DHT22;28407;51.830;5.684;2022-07-29T13:08:59;29.10;44.00
42755;DHT22;28407;51.830;5.684;2022-07-29T13:10:59;29.30;43.60
42755;DHT22;28407;51.830;5.684;2022-07-29T13:13:04;29.40;43.50
42755;DHT22;28407;51.830;5.684;2022-07-29T13:15:14;29.50;43.40
42755;DHT22;28407;51.830;5.684;2022-07-29T13:17:20;29.60;43.20
42755;DHT22;28407;51.830;5.684;2022-07-29T13:19:33;29.70;43.20
42755;DHT22;28407;51.830;5.684;2022-07-29T13:21:34;29.80;42.80
42755;DHT22;28407;51.830;5.684;2022-07-29T13:23:35;29.80;42.60
42755;DHT22;28407;51.830;5.684;2022-07-29T13:25:36;29.90;42.60